RKJK/KUV METAR and TAF weather

Enter ICAO airport designator
Station Type Date Time Source
RKJK METAR 2018/12/13 08:56 UTC NOAA

RKJK 130856Z 34014KT 10SM BKN045 04/M03 A3041 RMK AO2A PK WND 32027/13 SLP303 T00361034 53020 PNO $


Station Type Date Time Source
RKJK Decoded METAR 2018/12/13 08:56 UTC NOAA

Kunsan Ab, Korea, South (RKJK) 35-55N 126-37E 10M
Dec 13, 2018 - 03:56 AM EST / 2018.12.13 0856 UTC
Wind: from the NNW (340 degrees) at 16 MPH (14 KT):0
Visibility: 10 mile(s):0
Sky conditions: mostly cloudy
Temperature: 38.5 F (3.6 C)
Dew Point: 25.9 F (-3.4 C)
Relative Humidity: 60%
Pressure (altimeter): 30.41 in. Hg (1029 hPa)
Pressure tendency: 0.06 inches (2.0 hPa) higher than three hours ago
ob: RKJK 130856Z 34014KT 10SM BKN045 04/M03 A3041 RMK AO2A PK WND 32027/13 SLP303 T00361034 53020 PNO
cycle: 9

Station Type Date Time Source
RKJK TAF 2018/12/13 07:21 UTC NOAA

TAF TAF
AMD RKJK 130711Z 1307/1413 33015G25KT 9999 OVC030 620306 QNH3035INS
TEMPO 1310/1316 8000 -SN OVC020
BECMG 1315/1316 36012KT 9999 OVC020 620206 QNH3038INS
BECMG 1405/1406 34009KT 9999 SCT020 QNH3040INS TX04/1405Z TN00/1320Z


Example: see airport list